CJZ2 weather

Portage La Prairie (North) Airport
Portage La Prairie, Manitoba, Canada

Public forecast

Using degrees Celsius for public forecast. Weather courtesy of forecast.io.

Closest aviation weather report (METAR) to Portage La Prairie (North) Airport

Report is more than 6 hours old.

Closest report is Southport Airport, 5.5 nm (10.2 km) SSE. Retrieved 2019/11/14 23:00 UTC (10 hours ago):

CYPG 142300Z 34006KT 15SM BKN038 M04/M08 A3013 RMK SC6 LAST OBS/NEXT 151200 UTC SLP223

Closest aviation forecast (TAF) to Portage La Prairie (North) Airport

Forecast is more than 12 hours old.

Closest forecast is Southport Airport, 5.5 nm (10.2 km) SSE. Retrieved 2019/11/14 18:33 UTC (14 hours ago):

TAF TAF CYPG 141730Z 1418/1506 34015G25KT P6SM OVC012 TEMPO 1418/1506 SCT012 OVC020 PROB30 1418/1506 3SM -SHSN RMK NXT FCST BY 150000Z